Time;durP1;ratioP1;P1;durP2;ratioP2;P2;SDS_P1;SDS_P2;PMS_P1;PMS_P2;Temp;Humidity;BMP_temperature;BMP_pressure;BME280_temperature;BME280_humidity;BME280_pressure;Samples;Min_cycle;Max_cycle;Signal;HPM_P1;HPM_P2
2022/10/13 00:13:14;;;;;;;17.15;6.25;;;9.90;99.90;;;;;;7389780;19;19950;-85
2022/10/13 00:16:01;;;;;;;14.45;7.78;;;9.90;99.90;;;;;;7398831;19;19939;-83
2022/10/13 00:18:27;;;;;;;14.30;6.28;;;9.90;99.90;;;;;;7396554;19;19926;-83
2022/10/13 00:20:53;;;;;;;43.88;8.07;;;9.90;99.90;;;;;;7405466;19;19922;-83
2022/10/13 00:23:19;;;;;;;15.32;6.07;;;9.90;99.90;;;;;;7403003;19;19926;-83
2022/10/13 00:25:47;;;;;;;18.88;8.20;;;9.90;99.90;;;;;;7401023;19;19914;-83
2022/10/13 00:28:15;;;;;;;12.10;5.85;;;10.00;99.90;;;;;;7399703;19;20406;-83
2022/10/13 00:30:41;;;;;;;15.75;6.60;;;9.90;99.90;;;;;;7401663;19;19926;-83
2022/10/13 00:33:08;;;;;;;19.88;6.72;;;10.00;99.90;;;;;;7401745;19;19918;-83
2022/10/13 00:35:43;;;;;;;13.90;8.07;;;10.00;99.90;;;;;;7402819;19;19931;-83
2022/10/13 00:38:10;;;;;;;17.00;5.68;;;10.00;99.90;;;;;;7401506;19;19961;-83
2022/10/13 00:41:00;;;;;;;16.52;7.07;;;10.00;99.90;;;;;;7402556;19;19922;-83
2022/10/13 00:43:51;;;;;;;12.80;5.88;;;10.00;99.90;;;;;;7401962;19;19914;-83
2022/10/13 00:46:17;;;;;;;14.98;6.32;;;10.00;99.90;;;;;;7401848;19;19927;-83
2022/10/13 00:48:44;;;;;;;14.80;5.88;;;10.00;99.90;;;;;;7400158;19;19944;-83
2022/10/13 00:51:11;;;;;;;19.30;7.88;;;10.00;99.90;;;;;;7402153;19;19914;-83
2022/10/13 00:53:38;;;;;;;15.75;6.10;;;10.10;99.90;;;;;;7400104;19;20362;-83
2022/10/13 00:56:10;;;;;;;13.98;6.28;;;10.10;99.90;;;;;;7405486;19;19938;-83
2022/10/13 00:58:37;;;;;;;18.83;7.45;;;10.00;99.90;;;;;;7404322;19;19922;-83
2022/10/13 01:01:05;;;;;;;13.82;6.43;;;10.00;99.90;;;;;;7403955;19;19922;-82
2022/10/13 01:03:31;;;;;;;14.02;6.45;;;10.00;99.90;;;;;;7403728;19;19965;-84
2022/10/13 01:06:00;;;;;;;17.15;7.03;;;10.10;99.90;;;;;;7401510;19;19956;-83
2022/10/13 01:08:27;;;;;;;16.63;7.38;;;10.10;99.90;;;;;;7403295;19;20260;-83
2022/10/13 01:11:00;;;;;;;17.80;7.72;;;10.00;99.90;;;;;;7404767;19;19925;-83
2022/10/13 01:13:51;;;;;;;15.48;7.00;;;10.00;99.90;;;;;;7402976;19;19919;-83
2022/10/13 01:16:39;;;;;;;15.10;7.97;;;10.00;99.90;;;;;;7408637;19;19927;-83
2022/10/13 01:19:42;;;;;;;15.48;7.00;;;9.90;99.90;;;;;;7408656;19;19922;-82
2022/10/13 01:22:27;;;;;;;16.48;7.57;;;9.90;99.90;;;;;;7408693;19;19918;-83
2022/10/13 01:25:18;;;;;;;15.65;6.95;;;9.90;99.90;;;;;;7411704;19;19918;-82
2022/10/13 01:28:01;;;;;;;18.40;6.90;;;9.90;99.90;;;;;;7409289;19;19922;-83
2022/10/13 01:30:30;;;;;;;18.85;7.90;;;9.90;99.90;;;;;;7411760;19;19910;-82
2022/10/13 01:33:06;;;;;;;16.85;8.55;;;9.90;99.90;;;;;;7410571;19;19918;-83
2022/10/13 01:35:39;;;;;;;16.33;7.57;;;9.80;99.90;;;;;;7408831;19;19984;-83
2022/10/13 01:38:17;;;;;;;24.52;9.10;;;9.80;99.90;;;;;;7407821;19;19924;-82
2022/10/13 01:40:59;;;;;;;15.20;7.15;;;9.80;99.90;;;;;;7410248;19;19922;-83
2022/10/13 01:43:30;;;;;;;17.92;8.57;;;9.70;99.90;;;;;;7410229;19;20328;-82
2022/10/13 01:46:12;;;;;;;16.15;7.70;;;9.70;99.90;;;;;;7409907;19;19923;-82
2022/10/13 01:48:40;;;;;;;14.75;7.65;;;9.70;99.90;;;;;;7409262;19;19922;-83
2022/10/13 01:51:11;;;;;;;18.88;7.80;;;9.70;99.90;;;;;;7407689;19;19918;-82
2022/10/13 01:53:37;;;;;;;15.98;9.20;;;9.60;99.90;;;;;;7404515;19;19926;-83
2022/10/13 01:56:03;;;;;;;18.10;8.88;;;9.60;99.90;;;;;;7409003;19;19914;-83
2022/10/13 01:58:32;;;;;;;16.85;8.23;;;9.60;99.90;;;;;;7409879;19;19931;-83
2022/10/13 02:01:13;;;;;;;16.52;9.60;;;9.50;99.90;;;;;;7410585;19;19939;-83
2022/10/13 02:03:56;;;;;;;19.42;9.00;;;9.50;99.90;;;;;;7412238;19;19922;-83
2022/10/13 02:06:51;;;;;;;19.45;9.30;;;9.40;99.90;;;;;;7407535;19;20268;-83
2022/10/13 02:09:31;;;;;;;16.38;7.43;;;9.40;99.90;;;;;;7409064;19;19989;-83
2022/10/13 02:12:06;;;;;;;21.13;8.32;;;9.40;99.90;;;;;;7410026;19;19939;-83
2022/10/13 02:14:37;;;;;;;12.93;6.13;;;9.30;99.90;;;;;;7404490;19;19911;-82
2022/10/13 02:17:04;;;;;;;17.83;7.82;;;9.30;99.90;;;;;;7409411;19;20350;-82
2022/10/13 02:19:34;;;;;;;16.02;8.40;;;9.30;99.90;;;;;;7408323;19;19921;-83
2022/10/13 02:22:01;;;;;;;14.90;7.82;;;9.30;99.90;;;;;;7410044;19;19922;-83
2022/10/13 02:24:28;;;;;;;17.23;9.05;;;9.30;99.90;;;;;;7407088;19;19918;-84
2022/10/13 02:26:54;;;;;;;17.65;8.73;;;9.30;99.90;;;;;;7406643;19;19929;-83
2022/10/13 02:29:20;;;;;;;16.15;8.68;;;9.30;99.90;;;;;;7407347;19;20341;-83
2022/10/13 02:31:46;;;;;;;19.08;8.07;;;9.30;99.90;;;;;;7407919;19;19923;-83
2022/10/13 02:34:13;;;;;;;16.90;9.38;;;9.30;99.90;;;;;;7401294;19;20277;-83
2022/10/13 02:36:39;;;;;;;15.30;8.25;;;9.30;99.90;;;;;;7408363;19;19923;-83
2022/10/13 02:39:07;;;;;;;15.35;9.00;;;9.20;99.90;;;;;;7404906;19;20315;-83
2022/10/13 02:41:33;;;;;;;19.50;8.48;;;9.20;99.90;;;;;;7409238;19;19919;-84
2022/10/13 02:43:59;;;;;;;17.10;6.97;;;9.20;99.90;;;;;;7408178;19;19935;-83
2022/10/13 02:46:25;;;;;;;15.55;8.40;;;9.20;99.90;;;;;;7409394;19;19934;-83
2022/10/13 02:48:51;;;;;;;18.40;9.88;;;9.30;99.90;;;;;;7407843;19;19942;-83
2022/10/13 02:51:17;;;;;;;17.58;8.27;;;9.30;99.90;;;;;;7405675;19;19926;-83
2022/10/13 02:53:43;;;;;;;17.75;9.30;;;9.20;99.90;;;;;;7405669;19;19940;-83
2022/10/13 02:56:08;;;;;;;18.13;7.20;;;9.20;99.90;;;;;;7407728;19;19926;-84
2022/10/13 02:58:35;;;;;;;22.65;8.68;;;9.20;99.90;;;;;;7405558;19;19933;-83
2022/10/13 03:01:08;;;;;;;16.77;8.32;;;9.30;99.90;;;;;;7406941;19;19981;-84
2022/10/13 03:03:34;;;;;;;13.60;7.53;;;9.30;99.90;;;;;;7409566;19;20368;-83
2022/10/13 03:06:01;;;;;;;17.70;9.05;;;9.30;99.90;;;;;;7407661;19;19922;-83
2022/10/13 03:08:27;;;;;;;15.35;9.90;;;9.30;99.90;;;;;;7407559;19;19922;-83
2022/10/13 03:10:53;;;;;;;15.45;7.85;;;9.30;99.90;;;;;;7405736;19;19931;-83
2022/10/13 03:13:19;;;;;;;20.50;8.60;;;9.30;99.90;;;;;;7407814;19;19919;-84
2022/10/13 03:15:46;;;;;;;16.98;9.52;;;9.40;99.90;;;;;;7404744;19;19952;-83
2022/10/13 03:18:13;;;;;;;17.00;8.25;;;9.40;99.90;;;;;;7405058;19;19914;-83
2022/10/13 03:20:39;;;;;;;19.38;10.90;;;9.40;99.90;;;;;;7405800;19;19943;-84
2022/10/13 03:23:05;;;;;;;16.48;8.45;;;9.50;99.90;;;;;;7403671;19;19930;-83
2022/10/13 03:25:33;;;;;;;21.73;10.02;;;9.50;99.90;;;;;;7405133;19;19926;-83
2022/10/13 03:27:59;;;;;;;16.83;8.60;;;9.50;99.90;;;;;;7402731;19;20293;-83
2022/10/13 03:30:25;;;;;;;21.02;8.48;;;9.50;99.90;;;;;;7397859;19;19923;-83
2022/10/13 03:32:51;;;;;;;16.27;7.75;;;9.60;99.90;;;;;;7405393;19;20360;-83
2022/10/13 03:35:17;;;;;;;19.13;8.73;;;9.60;99.90;;;;;;7403585;19;19918;-83
2022/10/13 03:37:43;;;;;;;19.58;8.38;;;9.60;99.90;;;;;;7407263;19;19990;-83
2022/10/13 03:40:09;;;;;;;15.88;9.75;;;9.70;99.90;;;;;;7398123;19;19925;-83
2022/10/13 03:42:36;;;;;;;13.80;7.55;;;9.70;99.90;;;;;;7401480;19;20322;-84
2022/10/13 03:45:05;;;;;;;17.92;7.45;;;9.70;99.90;;;;;;7405385;19;20316;-83
2022/10/13 03:47:34;;;;;;;14.00;7.60;;;9.70;99.90;;;;;;7405732;19;19922;-83
2022/10/13 03:49:59;;;;;;;14.75;8.27;;;9.80;99.90;;;;;;7403637;19;20297;-83
2022/10/13 03:52:25;;;;;;;16.70;8.35;;;9.90;99.90;;;;;;7400050;19;19931;-83
2022/10/13 03:54:51;;;;;;;16.90;7.15;;;9.80;99.90;;;;;;7404267;19;19926;-82
2022/10/13 03:57:17;;;;;;;19.15;8.48;;;9.90;99.90;;;;;;7405879;19;20391;-83
2022/10/13 03:59:43;;;;;;;18.05;10.20;;;9.90;99.90;;;;;;7405972;19;19937;-83
2022/10/13 04:02:09;;;;;;;17.80;9.65;;;9.90;99.90;;;;;;7404308;19;19922;-83
2022/10/13 04:04:37;;;;;;;17.60;8.18;;;9.90;99.90;;;;;;7408632;19;19918;-83
2022/10/13 04:07:03;;;;;;;18.33;9.13;;;9.90;99.90;;;;;;7407863;19;19915;-84
2022/10/13 04:09:29;;;;;;;19.77;10.60;;;9.90;99.90;;;;;;7405780;19;19925;-83
2022/10/13 04:11:55;;;;;;;19.17;8.30;;;9.90;99.90;;;;;;7402413;19;19938;-83
2022/10/13 04:14:21;;;;;;;19.88;10.50;;;9.80;99.90;;;;;;7403041;19;19922;-83
2022/10/13 04:16:46;;;;;;;18.80;8.07;;;9.80;99.90;;;;;;7403346;19;19927;-83
2022/10/13 04:19:14;;;;;;;18.52;9.65;;;9.80;99.90;;;;;;7407937;19;19950;-83
2022/10/13 04:21:41;;;;;;;16.10;8.65;;;9.80;99.90;;;;;;7407437;19;19922;-83
2022/10/13 04:24:11;;;;;;;22.25;8.55;;;9.80;99.90;;;;;;7408569;19;20356;-83
2022/10/13 04:26:38;;;;;;;18.75;8.82;;;9.90;99.90;;;;;;7405295;19;19918;-83
2022/10/13 04:29:04;;;;;;;21.55;9.73;;;9.90;99.90;;;;;;7405548;19;19934;-83
2022/10/13 04:31:31;;;;;;;19.08;10.15;;;9.80;99.90;;;;;;7403841;19;20287;-83
2022/10/13 04:34:00;;;;;;;20.65;10.55;;;9.90;99.90;;;;;;7404716;19;19982;-83
2022/10/13 04:36:26;;;;;;;21.85;9.50;;;9.90;99.90;;;;;;7404239;19;19996;-83
2022/10/13 04:38:53;;;;;;;18.55;10.00;;;9.80;99.90;;;;;;7404588;19;19915;-83
2022/10/13 04:41:19;;;;;;;22.00;11.82;;;9.80;99.90;;;;;;7404302;19;20297;-83
2022/10/13 04:43:49;;;;;;;24.35;9.90;;;9.80;99.90;;;;;;7404977;19;19982;-83
2022/10/13 04:46:17;;;;;;;;;;;9.80;99.90;;;;;;7406305;19;20348;-84
2022/10/13 04:48:43;;;;;;;20.20;9.90;;;9.80;99.90;;;;;;7404655;19;19944;-83
2022/10/13 04:51:12;;;;;;;19.35;10.93;;;9.80;99.90;;;;;;7406245;19;20249;-83
2022/10/13 04:53:38;;;;;;;16.77;8.90;;;9.80;99.90;;;;;;7404058;19;19923;-83
2022/10/13 04:56:07;;;;;;;16.38;9.38;;;9.80;99.90;;;;;;7406051;19;19918;-83
2022/10/13 04:58:34;;;;;;;25.70;12.02;;;9.80;99.90;;;;;;7401940;19;20267;-83
2022/10/13 05:01:00;;;;;;;22.83;11.30;;;9.70;99.90;;;;;;7404090;19;19921;-84
2022/10/13 05:03:26;;;;;;;20.58;10.27;;;9.70;99.90;;;;;;7402204;19;19936;-84
2022/10/13 05:05:53;;;;;;;18.75;10.02;;;9.70;99.90;;;;;;7404499;19;19922;-83
2022/10/13 05:08:20;;;;;;;24.67;11.70;;;9.70;99.90;;;;;;7406064;19;19934;-84
2022/10/13 05:10:57;;;;;;;22.27;9.95;;;9.60;99.90;;;;;;7400619;19;20390;-84
2022/10/13 05:13:23;;;;;;;20.10;10.38;;;9.60;99.90;;;;;;7403173;19;19948;-83
2022/10/13 05:15:49;;;;;;;20.65;11.70;;;9.60;99.90;;;;;;7247398;19;19919;-84
2022/10/13 05:18:15;;;;;;;22.50;10.07;;;9.50;99.90;;;;;;7404809;19;19978;-83
2022/10/13 05:20:42;;;;;;;18.77;10.20;;;9.50;99.90;;;;;;7402901;19;20277;-84
2022/10/13 05:23:08;;;;;;;24.35;12.43;;;9.60;99.90;;;;;;7400713;19;20358;-83
2022/10/13 05:25:35;;;;;;;19.90;12.65;;;9.60;99.90;;;;;;7406726;19;19922;-83
2022/10/13 05:28:05;;;;;;;20.33;10.27;;;9.60;99.90;;;;;;7402935;19;19931;-84
2022/10/13 05:30:31;;;;;;;22.75;11.77;;;9.60;99.90;;;;;;7401758;19;19915;-83
2022/10/13 05:32:57;;;;;;;25.48;10.80;;;9.70;99.90;;;;;;7402075;19;19922;-84
2022/10/13 05:35:24;;;;;;;23.38;11.73;;;9.70;99.90;;;;;;7401568;19;19954;-83
2022/10/13 05:37:50;;;;;;;36.22;14.30;;;9.70;99.90;;;;;;7403482;19;19915;-84
2022/10/13 05:40:15;;;;;;;22.98;13.02;;;9.70;99.90;;;;;;7387266;19;19946;-83
2022/10/13 05:42:41;;;;;;;21.45;11.75;;;9.70;99.90;;;;;;7403508;19;19988;-84
2022/10/13 05:45:09;;;;;;;22.27;12.70;;;9.70;99.90;;;;;;7401758;19;19941;-84
2022/10/13 05:47:35;;;;;;;27.05;13.35;;;9.70;99.90;;;;;;7403131;19;19922;-84
2022/10/13 05:50:01;;;;;;;24.70;13.00;;;9.70;99.90;;;;;;7401241;19;20276;-84
2022/10/13 05:52:28;;;;;;;23.60;11.93;;;9.70;99.90;;;;;;7402631;19;19918;-84
2022/10/13 05:54:59;;;;;;;20.95;11.65;;;9.70;99.90;;;;;;7399961;19;19929;-84
2022/10/13 05:57:30;;;;;;;21.00;10.98;;;9.70;99.90;;;;;;7403620;19;19919;-83
2022/10/13 06:00:04;;;;;;;26.92;12.65;;;9.80;99.90;;;;;;7402109;19;19918;-88
2022/10/13 06:02:38;;;;;;;24.00;11.30;;;9.80;99.90;;;;;;7408122;19;20388;-89
2022/10/13 06:05:09;;;;;;;26.25;13.00;;;9.80;99.90;;;;;;7403083;19;19989;-83
2022/10/13 06:07:35;;;;;;;29.67;13.10;;;9.80;99.90;;;;;;7408123;19;19946;-84
2022/10/13 06:10:01;;;;;;;26.17;14.02;;;9.80;99.90;;;;;;7406021;19;19926;-87
2022/10/13 06:12:27;;;;;;;32.03;13.82;;;9.80;99.90;;;;;;7408360;19;19919;-87
2022/10/13 06:14:53;;;;;;;27.48;13.68;;;9.70;99.90;;;;;;7400263;19;19927;-88
2022/10/13 06:17:19;;;;;;;31.23;15.10;;;9.70;99.90;;;;;;7410589;19;20623;-94
2022/10/13 06:19:44;;;;;;;36.40;15.70;;;9.70;99.90;;;;;;7415422;19;19946;-92
2022/10/13 06:22:11;;;;;;;35.33;17.70;;;9.70;99.90;;;;;;7405494;19;20348;-88
2022/10/13 06:24:37;;;;;;;38.88;18.45;;;9.70;99.90;;;;;;7404541;19;20356;-88
2022/10/13 06:27:03;;;;;;;38.90;16.98;;;9.70;99.90;;;;;;7403739;19;19947;-89
2022/10/13 06:29:29;;;;;;;33.78;14.85;;;9.80;99.90;;;;;;7408191;19;19914;-88
2022/10/13 06:31:55;;;;;;;32.88;18.40;;;9.80;99.90;;;;;;7402596;19;19942;-89
2022/10/13 06:34:21;;;;;;;33.28;15.68;;;9.80;99.90;;;;;;7406488;19;19918;-89
2022/10/13 06:36:47;;;;;;;38.20;17.05;;;9.90;99.90;;;;;;7407892;19;20015;-89
2022/10/13 06:39:15;;;;;;;39.38;18.23;;;9.90;99.90;;;;;;7409523;19;20291;-89
2022/10/13 06:41:41;;;;;;;34.50;18.50;;;9.90;99.90;;;;;;7408307;19;20281;-89
2022/10/13 06:44:07;;;;;;;33.33;17.33;;;9.90;99.90;;;;;;7404197;19;19935;-89
2022/10/13 06:46:33;;;;;;;28.33;12.88;;;9.90;99.90;;;;;;7406745;19;19938;-88
2022/10/13 06:48:59;;;;;;;30.92;18.25;;;9.90;99.90;;;;;;7409372;19;19926;-88
2022/10/13 06:51:25;;;;;;;38.60;16.23;;;9.90;99.90;;;;;;7404053;19;19925;-88
2022/10/13 06:53:51;;;;;;;36.92;17.60;;;10.00;99.90;;;;;;7406481;19;19993;-89
2022/10/13 06:56:17;;;;;;;34.25;19.00;;;10.00;99.90;;;;;;7402330;19;20304;-87
2022/10/13 06:58:42;;;;;;;38.35;17.92;;;9.90;99.90;;;;;;7406791;19;20008;-88
2022/10/13 07:01:12;;;;;;;35.75;16.00;;;10.00;99.90;;;;;;7408811;19;19945;-88
2022/10/13 07:03:37;;;;;;;36.25;15.60;;;10.00;99.90;;;;;;7409144;19;19925;-88
2022/10/13 07:06:05;;;;;;;28.48;15.77;;;10.00;99.90;;;;;;7403897;19;19918;-88
2022/10/13 07:08:34;;;;;;;36.15;16.60;;;10.00;99.90;;;;;;7408669;19;19939;-88
2022/10/13 07:11:12;;;;;;;32.10;17.23;;;10.00;99.90;;;;;;7408476;19;20277;-89
2022/10/13 07:13:38;;;;;;;38.90;18.75;;;10.10;99.90;;;;;;7402933;19;20258;-89
2022/10/13 07:16:05;;;;;;;34.58;16.35;;;10.20;99.90;;;;;;7405957;19;19926;-88
2022/10/13 07:18:32;;;;;;;29.02;15.02;;;10.20;99.90;;;;;;7404874;19;19942;-89
2022/10/13 07:20:59;;;;;;;32.05;14.90;;;10.20;99.90;;;;;;7404936;19;19927;-89
2022/10/13 07:23:26;;;;;;;30.45;14.27;;;10.20;99.90;;;;;;7406096;19;19929;-88
2022/10/13 07:25:52;;;;;;;29.63;16.63;;;10.20;99.90;;;;;;7409042;19;19982;-88
2022/10/13 07:28:18;;;;;;;34.25;16.58;;;10.20;99.90;;;;;;7405316;19;20278;-89
2022/10/13 07:30:44;;;;;;;29.65;15.07;;;10.30;99.90;;;;;;7408309;19;19918;-88
2022/10/13 07:33:10;;;;;;;33.80;18.10;;;10.40;99.90;;;;;;7406350;19;19939;-89
2022/10/13 07:35:39;;;;;;;32.63;15.07;;;10.40;99.90;;;;;;7407724;19;19923;-88
2022/10/13 07:38:07;;;;;;;35.25;17.30;;;10.50;99.90;;;;;;7405916;19;19923;-88
2022/10/13 07:40:33;;;;;;;28.67;14.77;;;10.50;99.90;;;;;;7410003;19;19982;-88
2022/10/13 07:42:59;;;;;;;16.45;8.35;;;10.50;99.90;;;;;;7406367;19;19937;-89
2022/10/13 07:45:25;;;;;;;31.33;14.02;;;10.70;99.90;;;;;;7405696;19;19926;-88
2022/10/13 07:47:51;;;;;;;24.25;12.82;;;10.80;99.90;;;;;;7408902;19;19926;-88
2022/10/13 07:50:17;;;;;;;29.35;15.95;;;10.90;99.90;;;;;;7405133;19;20332;-88
2022/10/13 07:52:43;;;;;;;28.67;15.93;;;11.00;99.90;;;;;;7403970;19;19914;-88
2022/10/13 07:55:09;;;;;;;20.70;11.80;;;10.90;99.90;;;;;;7407388;19;19933;-88
2022/10/13 07:57:35;;;;;;;27.63;14.05;;;10.90;99.90;;;;;;7401442;19;19922;-88
2022/10/13 08:00:04;;;;;;;20.88;10.77;;;11.00;99.90;;;;;;7402968;19;20013;-88
2022/10/13 08:02:31;;;;;;;26.40;13.15;;;10.90;99.90;;;;;;7407381;19;19925;-89
2022/10/13 08:04:57;;;;;;;28.77;14.55;;;11.00;99.90;;;;;;7408400;19;20009;-88
2022/10/13 08:07:23;;;;;;;25.33;14.27;;;11.00;99.90;;;;;;7402116;19;19922;-88
2022/10/13 08:09:49;;;;;;;25.33;12.27;;;11.00;99.90;;;;;;7403860;19;19925;-88
2022/10/13 08:12:15;;;;;;;25.15;13.48;;;11.10;99.90;;;;;;7397170;19;19944;-89
2022/10/13 08:14:41;;;;;;;25.65;13.07;;;11.10;99.90;;;;;;7374709;19;20379;-89
2022/10/13 08:17:07;;;;;;;22.27;13.93;;;11.10;99.90;;;;;;7383311;19;19925;-88
2022/10/13 08:19:33;;;;;;;25.40;14.98;;;11.10;99.90;;;;;;7373951;19;19946;-88
2022/10/13 08:21:59;;;;;;;25.90;13.40;;;11.00;99.90;;;;;;7372716;19;19914;-89
2022/10/13 08:24:26;;;;;;;25.52;12.20;;;11.00;99.90;;;;;;7374934;19;20371;-88
2022/10/13 08:26:52;;;;;;;27.42;13.52;;;11.10;99.90;;;;;;7377949;19;19923;-88
2022/10/13 08:29:19;;;;;;;27.98;14.73;;;11.10;99.90;;;;;;7374549;19;20593;-88
2022/10/13 08:31:44;;;;;;;20.45;10.23;;;11.20;99.90;;;;;;7374515;19;19943;-88
2022/10/13 08:34:11;;;;;;;27.80;14.50;;;11.20;99.90;;;;;;7375370;19;19914;-88
2022/10/13 08:36:37;;;;;;;24.25;13.38;;;11.30;99.90;;;;;;7376435;19;19918;-89
2022/10/13 08:39:03;;;;;;;24.83;13.23;;;11.30;99.90;;;;;;7372330;19;19926;-88
2022/10/13 08:41:35;;;;;;;28.80;14.93;;;11.40;99.90;;;;;;7374033;19;19950;-87
2022/10/13 08:44:16;;;;;;;30.63;13.77;;;11.40;99.90;;;;;;7373458;19;19923;-89
2022/10/13 08:46:56;;;;;;;23.85;11.95;;;11.50;99.90;;;;;;7375995;19;19946;-89
2022/10/13 08:49:22;;;;;;;26.25;13.48;;;11.60;99.90;;;;;;7373961;19;19919;-87
2022/10/13 08:51:48;;;;;;;26.55;14.52;;;11.60;99.90;;;;;;7370321;19;19929;-88
2022/10/13 08:54:17;;;;;;;18.08;10.80;;;11.70;99.90;;;;;;7374313;19;19953;-89
2022/10/13 08:56:48;;;;;;;25.92;13.73;;;11.80;99.90;;;;;;7377372;19;20927;-88
2022/10/13 08:59:16;;;;;;;25.20;15.57;;;11.90;99.90;;;;;;7373291;19;19918;-88
2022/10/13 09:01:47;;;;;;;24.63;14.60;;;12.00;99.90;;;;;;7376167;19;20558;-88
2022/10/13 09:04:25;;;;;;;26.17;14.48;;;12.00;99.90;;;;;;7371960;19;19941;-89
2022/10/13 09:07:17;;;;;;;25.52;15.20;;;12.00;99.90;;;;;;7376510;19;20290;-89
2022/10/13 09:09:44;;;;;;;23.75;13.43;;;12.10;99.90;;;;;;7374044;19;19919;-88
2022/10/13 09:12:11;;;;;;;27.02;14.60;;;12.10;99.90;;;;;;7371832;19;19933;-88
2022/10/13 09:14:40;;;;;;;12.50;6.68;;;12.10;99.90;;;;;;7368075;19;19922;-88
2022/10/13 09:17:16;;;;;;;25.30;15.00;;;12.20;99.90;;;;;;7372905;19;20336;-89
2022/10/13 09:19:43;;;;;;;23.98;12.75;;;12.20;99.90;;;;;;7375990;19;19925;-89
2022/10/13 09:22:23;;;;;;;22.88;15.07;;;12.30;99.90;;;;;;7376450;19;19950;-89
2022/10/13 09:25:08;;;;;;;24.13;15.20;;;12.30;99.90;;;;;;7402719;19;19935;-88
2022/10/13 09:27:44;;;;;;;27.17;14.60;;;12.40;99.90;;;;;;7402553;19;20382;-88
2022/10/13 09:30:37;;;;;;;29.35;15.23;;;12.40;99.90;;;;;;7402982;19;20247;-88
2022/10/13 09:33:11;;;;;;;23.55;11.85;;;12.40;99.90;;;;;;7402231;19;19939;-88
2022/10/13 09:35:57;;;;;;;22.02;12.85;;;12.40;99.90;;;;;;7409053;19;19930;-88
2022/10/13 09:38:25;;;;;;;23.30;13.65;;;12.50;99.90;;;;;;7409488;19;19923;-89
2022/10/13 09:41:05;;;;;;;23.35;10.73;;;12.50;99.90;;;;;;7408778;19;19955;-89
2022/10/13 09:43:44;;;;;;;21.05;11.10;;;12.50;99.90;;;;;;7407029;19;19922;-88
2022/10/13 09:46:32;;;;;;;26.52;13.85;;;12.50;99.90;;;;;;7410108;19;19930;-88
2022/10/13 09:49:07;;;;;;;12.07;7.25;;;12.50;99.90;;;;;;7408758;19;19919;-89
2022/10/13 09:51:32;;;;;;;25.33;14.10;;;12.50;99.90;;;;;;7410996;19;19926;-89
2022/10/13 09:53:59;;;;;;;28.33;12.60;;;12.60;99.90;;;;;;7409242;19;19927;-88
2022/10/13 09:56:55;;;;;;;24.13;15.88;;;12.60;99.90;;;;;;7408262;19;20280;-89
2022/10/13 09:59:42;;;;;;;28.80;17.23;;;12.60;99.90;;;;;;7410103;19;19930;-88
2022/10/13 10:02:20;;;;;;;31.65;13.18;;;12.60;99.90;;;;;;7409180;19;19970;-85
2022/10/13 10:04:46;;;;;;;25.35;15.15;;;12.70;99.90;;;;;;7409869;19;20347;-81
2022/10/13 10:07:19;;;;;;;25.55;12.88;;;12.70;99.90;;;;;;7410088;19;19930;-83
2022/10/13 10:09:50;;;;;;;29.48;15.95;;;12.80;99.90;;;;;;7413123;19;19926;-84
2022/10/13 10:12:20;;;;;;;31.23;17.55;;;12.90;99.90;;;;;;7409429;19;19927;-84
2022/10/13 10:14:49;;;;;;;28.05;15.85;;;13.10;99.90;;;;;;7406968;19;19911;-84
2022/10/13 10:17:40;;;;;;;28.60;16.35;;;13.20;99.90;;;;;;7410728;19;20292;-84
2022/10/13 10:20:26;;;;;;;26.00;13.63;;;13.20;99.90;;;;;;7408397;19;20348;-84
2022/10/13 10:23:19;;;;;;;22.52;13.68;;;13.20;99.90;;;;;;7407425;19;19935;-84
2022/10/13 10:26:11;;;;;;;28.02;16.33;;;13.20;99.90;;;;;;7315822;19;20420;-84
2022/10/13 10:28:55;;;;;;;24.90;14.70;;;13.20;99.90;;;;;;7408713;19;20441;-86
2022/10/13 10:31:47;;;;;;;28.70;15.55;;;13.20;99.90;;;;;;7405911;19;20010;-86
2022/10/13 10:34:13;;;;;;;25.23;14.32;;;13.20;99.90;;;;;;7404744;19;20241;-87
2022/10/13 10:36:54;;;;;;;26.00;13.30;;;13.30;99.90;;;;;;7408056;19;19932;-89
2022/10/13 10:39:37;;;;;;;30.02;16.90;;;13.40;99.90;;;;;;7412531;19;20256;-89
2022/10/13 10:42:05;;;;;;;25.88;14.00;;;13.40;99.90;;;;;;7410744;19;20337;-91
2022/10/13 10:44:41;;;;;;;33.53;17.65;;;13.60;99.90;;;;;;7404106;19;20375;-88
2022/10/13 10:47:22;;;;;;;26.33;16.85;;;13.50;99.90;;;;;;7408497;19;20253;-87
2022/10/13 10:49:52;;;;;;;24.42;11.85;;;13.50;99.90;;;;;;7404745;19;20420;-87
2022/10/13 10:52:42;;;;;;;24.02;14.10;;;13.50;99.90;;;;;;7411516;19;19928;-86
2022/10/13 10:55:20;;;;;;;26.45;12.05;;;13.50;99.90;;;;;;7408972;19;19927;-85
2022/10/13 10:58:02;;;;;;;20.00;10.82;;;13.50;99.90;;;;;;7409777;19;19950;-85
2022/10/13 11:00:28;;;;;;;29.10;16.23;;;13.50;99.90;;;;;;7407083;19;19911;-87
2022/10/13 11:03:08;;;;;;;23.70;13.82;;;13.60;99.90;;;;;;7405841;19;19921;-86
2022/10/13 11:05:55;;;;;;;27.17;15.57;;;13.50;99.90;;;;;;7407968;19;20244;-86
2022/10/13 11:08:38;;;;;;;31.77;18.35;;;13.50;99.90;;;;;;7407355;19;19938;-85
2022/10/13 11:11:19;;;;;;;25.50;15.68;;;13.50;99.90;;;;;;7408758;19;19918;-86
2022/10/13 11:13:59;;;;;;;22.90;13.85;;;13.50;99.90;;;;;;7404575;19;19923;-86
2022/10/13 11:16:28;;;;;;;21.20;12.88;;;13.50;99.90;;;;;;7411050;19;19914;-86
2022/10/13 11:19:04;;;;;;;26.63;16.77;;;13.50;99.90;;;;;;7406637;19;19911;-86
2022/10/13 11:22:08;;;;;;;31.15;18.83;;;13.50;99.90;;;;;;7407683;19;20278;-86
2022/10/13 11:24:40;;;;;;;29.40;16.48;;;13.50;99.90;;;;;;7407190;19;19923;-86
2022/10/13 11:27:07;;;;;;;23.60;14.07;;;13.50;99.90;;;;;;7410585;19;19922;-86
2022/10/13 11:29:45;;;;;;;31.60;17.70;;;13.50;99.90;;;;;;7407417;19;19917;-86
2022/10/13 11:32:27;;;;;;;32.70;18.08;;;13.60;99.90;;;;;;7408537;19;20271;-86
2022/10/13 11:35:04;;;;;;;28.92;16.38;;;13.60;99.90;;;;;;7405778;19;19918;-86
2022/10/13 11:37:48;;;;;;;34.88;20.55;;;13.60;99.90;;;;;;7407091;19;20392;-86
2022/10/13 11:40:33;;;;;;;28.90;16.77;;;13.50;99.90;;;;;;7406314;19;19911;-86
2022/10/13 11:43:18;;;;;;;30.33;18.95;;;13.50;99.90;;;;;;7404733;19;19931;-86
2022/10/13 11:46:08;;;;;;;18.27;10.52;;;13.50;99.90;;;;;;7406946;19;19919;-86
2022/10/13 11:49:03;;;;;;;26.17;15.77;;;13.50;99.90;;;;;;7406621;19;20555;-86
2022/10/13 11:51:53;;;;;;;27.30;16.55;;;13.60;99.90;;;;;;7404939;19;19934;-86
2022/10/13 11:54:31;;;;;;;30.08;17.23;;;13.60;99.90;;;;;;7406258;19;19922;-86
2022/10/13 11:56:57;;;;;;;31.98;18.42;;;13.60;99.90;;;;;;7409135;19;19929;-86
2022/10/13 11:59:31;;;;;;;22.52;14.23;;;13.60;99.90;;;;;;7403176;19;19919;-86
2022/10/13 12:02:05;;;;;;;30.85;16.80;;;13.60;99.90;;;;;;7405390;19;19939;-86
2022/10/13 12:04:31;;;;;;;28.95;17.70;;;13.70;99.90;;;;;;7408143;19;19929;-85
2022/10/13 12:07:06;;;;;;;28.90;15.75;;;13.70;99.90;;;;;;7409035;19;19922;-85
2022/10/13 12:09:33;;;;;;;28.45;13.98;;;13.70;99.90;;;;;;7405903;19;19923;-86
2022/10/13 12:12:15;;;;;;;27.20;15.82;;;13.80;99.90;;;;;;7404838;19;20274;-86
2022/10/13 12:14:46;;;;;;;24.25;13.02;;;13.80;99.90;;;;;;7404775;19;19926;-86
2022/10/13 12:17:22;;;;;;;28.05;17.55;;;13.90;99.90;;;;;;7405023;19;19923;-86
2022/10/13 12:19:48;;;;;;;29.75;18.88;;;13.90;99.90;;;;;;7404168;19;19925;-86
2022/10/13 12:22:14;;;;;;;22.35;14.70;;;14.00;99.90;;;;;;7403412;19;19917;-86
2022/10/13 12:24:40;;;;;;;28.80;14.95;;;14.00;99.90;;;;;;7405027;19;19922;-86
2022/10/13 12:27:20;;;;;;;27.25;14.88;;;14.00;99.90;;;;;;7404360;19;19918;-89
2022/10/13 12:29:46;;;;;;;32.75;18.55;;;14.00;99.90;;;;;;7404955;19;19946;-84
2022/10/13 12:32:19;;;;;;;29.10;16.92;;;14.00;99.90;;;;;;7405592;19;19922;-84
2022/10/13 12:34:47;;;;;;;26.77;13.70;;;14.00;99.90;;;;;;7403694;19;19931;-84
2022/10/13 12:37:35;;;;;;;27.13;15.93;;;14.00;99.90;;;;;;7403790;19;19918;-84
2022/10/13 12:40:03;;;;;;;22.00;11.05;;;14.00;99.90;;;;;;7402768;19;19974;-84
2022/10/13 12:42:36;;;;;;;19.20;10.48;;;14.00;99.90;;;;;;7404003;19;19914;-84
2022/10/13 12:45:03;;;;;;;27.13;14.90;;;14.10;99.90;;;;;;7403089;19;19929;-85
2022/10/13 12:47:47;;;;;;;24.88;13.30;;;14.10;99.90;;;;;;7404316;19;19922;-85
2022/10/13 12:50:28;;;;;;;23.73;13.70;;;14.00;99.90;;;;;;7404062;19;19926;-85
2022/10/13 12:53:13;;;;;;;28.75;17.20;;;14.00;99.90;;;;;;7403859;19;19926;-85
2022/10/13 12:56:05;;;;;;;24.67;14.35;;;14.00;99.90;;;;;;7403742;19;19916;-84
2022/10/13 12:58:33;;;;;;;31.30;17.20;;;14.00;99.90;;;;;;7403616;19;20366;-84
2022/10/13 13:01:18;;;;;;;28.42;16.30;;;14.00;99.90;;;;;;7403871;19;19978;-85
2022/10/13 13:03:44;;;;;;;30.20;16.90;;;14.00;99.90;;;;;;7404239;19;19922;-84
2022/10/13 13:06:23;;;;;;;28.30;17.05;;;14.00;99.90;;;;;;7405736;19;19926;-85
2022/10/13 13:09:11;;;;;;;31.48;16.63;;;14.10;99.90;;;;;;7404425;19;19914;-85